createdAt,value
2023-03-25T00:00:05.383Z,12.40
2023-03-25T00:03:07.496Z,12.30
2023-03-25T00:06:11.241Z,12.30
2023-03-25T00:09:13.344Z,12.20
2023-03-25T00:12:18.363Z,12.20
2023-03-25T00:15:21.613Z,12.20
2023-03-25T00:18:25.009Z,12.20
2023-03-25T00:21:27.132Z,12.20
2023-03-25T00:24:32.001Z,12.20
2023-03-25T00:27:34.304Z,12.10
2023-03-25T00:30:38.944Z,11.90
2023-03-25T00:33:41.188Z,12.00
2023-03-25T00:36:46.061Z,11.90
2023-03-25T00:39:48.515Z,11.90
2023-03-25T00:42:50.690Z,11.90
2023-03-25T00:45:56.132Z,11.90
2023-03-25T00:48:58.940Z,12.00
2023-03-25T00:52:01.052Z,11.90
2023-03-25T00:55:03.592Z,11.90
2023-03-25T00:58:05.618Z,12.10
2023-03-25T01:01:15.033Z,12.10
2023-03-25T01:04:17.148Z,12.10
2023-03-25T01:07:20.456Z,12.10
2023-03-25T01:10:23.101Z,12.10
2023-03-25T01:13:25.341Z,12.00
2023-03-25T01:16:29.124Z,11.90
2023-03-25T01:19:31.779Z,12.00
2023-03-25T01:22:33.909Z,12.00
2023-03-25T01:25:39.106Z,11.90
2023-03-25T01:28:42.792Z,12.00
2023-03-25T01:31:45.452Z,12.10
2023-03-25T01:34:47.435Z,12.10
2023-03-25T01:37:49.840Z,12.00
2023-03-25T01:40:53.972Z,11.80
2023-03-25T01:44:22.439Z,11.70
2023-03-25T01:47:25.129Z,11.70
2023-03-25T01:50:27.744Z,11.50
2023-03-25T01:53:30.807Z,11.40
2023-03-25T01:56:37.563Z,11.40
2023-03-25T01:59:40.269Z,11.40
2023-03-25T02:02:43.718Z,11.40
2023-03-25T02:05:58.724Z,11.30
2023-03-25T02:09:03.973Z,11.30
2023-03-25T02:12:06.307Z,11.30
2023-03-25T02:15:09.922Z,11.30
2023-03-25T02:18:27.860Z,11.20
2023-03-25T02:21:48.650Z,11.10
2023-03-25T02:25:06.673Z,11.10
2023-03-25T02:28:49.780Z,11.00
2023-03-25T02:32:13.144Z,11.00
2023-03-25T02:35:52.744Z,11.00
2023-03-25T02:39:10.967Z,10.90
2023-03-25T02:42:34.750Z,10.90
2023-03-25T02:45:43.430Z,10.90
2023-03-25T02:48:51.166Z,10.90
2023-03-25T02:52:02.865Z,10.90
2023-03-25T02:55:08.275Z,10.90
2023-03-25T02:58:13.364Z,10.90
2023-03-25T03:01:15.841Z,10.90
2023-03-25T03:04:18.172Z,11.00
2023-03-25T03:07:41.806Z,10.90
2023-03-25T03:10:49.585Z,11.00
2023-03-25T03:14:10.719Z,11.00
2023-03-25T03:17:20.440Z,11.00
2023-03-25T03:20:45.008Z,10.90
2023-03-25T03:24:04.567Z,11.00
2023-03-25T03:27:18.833Z,10.90
2023-03-25T03:30:26.547Z,10.90
2023-03-25T03:33:39.543Z,10.90
2023-03-25T03:36:47.094Z,11.00
2023-03-25T03:39:51.130Z,11.00
2023-03-25T03:43:00.099Z,10.90
2023-03-25T03:46:10.625Z,10.90
2023-03-25T03:49:24.754Z,11.00
2023-03-25T03:52:42.578Z,11.00
2023-03-25T03:55:53.881Z,11.00
2023-03-25T03:58:58.812Z,11.00
2023-03-25T04:02:04.914Z,11.00
2023-03-25T04:05:10.724Z,11.00
2023-03-25T04:08:21.936Z,11.00
2023-03-25T04:11:29.753Z,10.90
2023-03-25T04:14:32.347Z,10.80
2023-03-25T04:17:34.498Z,11.00
2023-03-25T04:20:36.951Z,10.90
2023-03-25T04:23:39.121Z,10.90
2023-03-25T04:26:43.560Z,10.90
2023-03-25T04:29:45.725Z,10.90
2023-03-25T04:32:50.985Z,11.10
2023-03-25T04:35:53.786Z,11.10
2023-03-25T04:38:56.553Z,11.20
2023-03-25T04:41:59.872Z,11.20
2023-03-25T04:45:02.006Z,11.20
2023-03-25T04:48:04.358Z,11.20
2023-03-25T04:51:09.055Z,11.30
2023-03-25T04:54:11.948Z,11.10
2023-03-25T04:57:14.073Z,11.20
2023-03-25T05:00:20.634Z,11.20
2023-03-25T05:03:22.776Z,11.10
2023-03-25T05:06:26.248Z,11.20
2023-03-25T05:09:28.726Z,11.20
2023-03-25T05:12:30.784Z,11.30
2023-03-25T05:15:34.592Z,11.30
2023-03-25T05:18:36.781Z,11.20
2023-03-25T05:21:40.004Z,11.30
2023-03-25T05:24:42.165Z,11.30
2023-03-25T05:27:44.233Z,11.20
2023-03-25T05:30:47.624Z,11.20
2023-03-25T05:33:52.174Z,11.30
2023-03-25T05:36:56.549Z,11.40
2023-03-25T05:39:59.010Z,11.30
2023-03-25T05:43:01.140Z,11.40
2023-03-25T05:46:05.568Z,11.40
2023-03-25T05:49:07.623Z,11.40
2023-03-25T05:52:09.758Z,11.40
2023-03-25T05:55:20.807Z,11.50
2023-03-25T05:58:23.208Z,11.50
2023-03-25T06:01:33.202Z,11.50
2023-03-25T06:04:36.158Z,11.60
2023-03-25T06:07:38.549Z,11.60
2023-03-25T06:10:41.085Z,11.70
2023-03-25T06:13:44.177Z,11.80
2023-03-25T06:16:46.454Z,11.90
2023-03-25T06:19:49.638Z,11.80
2023-03-25T06:22:51.633Z,11.60
2023-03-25T06:25:54.733Z,11.60
2023-03-25T06:28:56.961Z,11.60
2023-03-25T06:31:59.275Z,11.40
2023-03-25T06:35:01.237Z,11.50
2023-03-25T06:38:03.333Z,11.40
2023-03-25T06:41:16.953Z,11.50
2023-03-25T06:44:24.957Z,11.90
2023-03-25T06:47:45.852Z,12.40
2023-03-25T06:50:48.137Z,12.20
2023-03-25T06:53:50.247Z,11.90
2023-03-25T06:56:52.478Z,11.90
2023-03-25T06:59:54.579Z,11.90
2023-03-25T07:02:56.721Z,12.40
2023-03-25T07:05:59.165Z,12.40
2023-03-25T07:09:01.273Z,12.40
2023-03-25T07:12:03.468Z,12.50
2023-03-25T07:15:06.198Z,14.20
2023-03-25T07:18:10.095Z,15.60
2023-03-25T07:21:12.355Z,16.30
2023-03-25T07:24:14.319Z,16.60
2023-03-25T07:27:19.329Z,15.50
2023-03-25T07:30:33.125Z,14.90
2023-03-25T07:33:35.015Z,14.20
2023-03-25T07:36:37.212Z,13.80
2023-03-25T07:39:39.260Z,13.40
2023-03-25T07:42:41.428Z,13.10
2023-03-25T07:46:04.165Z,13.00
2023-03-25T07:49:06.585Z,12.70
2023-03-25T07:52:08.636Z,12.60
2023-03-25T07:55:10.711Z,12.50
2023-03-25T07:58:13.371Z,12.50
2023-03-25T08:01:15.684Z,12.90
2023-03-25T08:04:17.669Z,13.30
2023-03-25T08:07:19.762Z,13.20
2023-03-25T08:10:22.270Z,13.10
2023-03-25T08:13:24.925Z,12.90
2023-03-25T08:16:27.117Z,12.90
2023-03-25T08:19:29.379Z,12.70
2023-03-25T08:22:31.869Z,12.50
2023-03-25T08:25:33.961Z,12.50
2023-03-25T08:28:35.992Z,12.40
2023-03-25T08:31:38.443Z,12.20
2023-03-25T08:34:40.468Z,12.10
2023-03-25T08:37:45.001Z,12.10
2023-03-25T08:40:48.528Z,12.80
2023-03-25T08:43:50.681Z,12.70
2023-03-25T08:46:52.810Z,12.90
2023-03-25T08:49:54.896Z,12.90
2023-03-25T08:52:58.079Z,12.90
2023-03-25T08:56:00.157Z,12.70
2023-03-25T08:59:02.169Z,12.60
2023-03-25T09:02:04.464Z,12.70
2023-03-25T09:05:07.423Z,12.60
2023-03-25T09:08:11.987Z,12.40
2023-03-25T09:11:18.053Z,12.40
2023-03-25T09:14:23.918Z,12.60
2023-03-25T09:17:26.167Z,12.70
2023-03-25T09:20:28.468Z,12.60
2023-03-25T09:23:30.495Z,12.60
2023-03-25T09:26:32.476Z,13.20
2023-03-25T09:29:34.853Z,13.40
2023-03-25T09:32:37.488Z,13.40
2023-03-25T09:35:41.039Z,13.70
2023-03-25T09:38:43.284Z,13.90
2023-03-25T09:42:24.899Z,13.90
2023-03-25T09:45:38.087Z,13.50
2023-03-25T09:48:42.027Z,14.30
2023-03-25T09:51:45.961Z,16.00
2023-03-25T09:54:52.664Z,17.00
2023-03-25T09:58:11.328Z,17.90
2023-03-25T10:01:35.242Z,18.20
2023-03-25T10:05:04.446Z,18.40
2023-03-25T10:08:18.327Z,18.70
2023-03-25T10:11:34.008Z,17.40
2023-03-25T10:14:54.462Z,17.90
2023-03-25T10:18:44.110Z,17.90
2023-03-25T10:21:52.565Z,17.10
2023-03-25T10:24:55.262Z,16.30
2023-03-25T10:27:59.343Z,15.30
2023-03-25T10:31:03.230Z,14.60
2023-03-25T10:34:10.788Z,14.20
2023-03-25T10:37:16.576Z,13.90
2023-03-25T10:40:33.907Z,13.70
2023-03-25T10:43:40.042Z,13.50
2023-03-25T10:46:49.550Z,13.50
2023-03-25T10:49:52.601Z,13.80
2023-03-25T10:52:54.869Z,14.40
2023-03-25T10:56:17.831Z,15.20
2023-03-25T10:59:34.779Z,15.60
2023-03-25T11:02:37.439Z,16.10
2023-03-25T11:05:39.882Z,16.70
2023-03-25T11:09:11.227Z,16.30
2023-03-25T11:12:19.252Z,16.60
2023-03-25T11:15:34.657Z,16.90
2023-03-25T11:18:40.264Z,17.10
2023-03-25T11:21:48.134Z,17.40
2023-03-25T11:24:53.133Z,17.60
2023-03-25T11:28:38.772Z,17.70
2023-03-25T11:34:51.615Z,17.80
2023-03-25T11:37:57.631Z,17.90
2023-03-25T11:41:00.113Z,17.90
2023-03-25T11:44:05.152Z,18.00
2023-03-25T11:47:11.042Z,17.90
2023-03-25T12:03:29.316Z,16.40
2023-03-25T12:06:31.561Z,15.70
2023-03-25T12:09:33.609Z,15.90
2023-03-25T12:12:52.726Z,16.30
2023-03-25T12:16:12.010Z,16.80
2023-03-25T12:19:28.244Z,16.90
2023-03-25T12:22:49.478Z,16.90
2023-03-25T12:26:11.718Z,16.60
2023-03-25T12:29:29.476Z,16.60
2023-03-25T12:33:17.053Z,17.00
2023-03-25T12:36:34.538Z,16.70
2023-03-25T12:39:49.434Z,16.70
2023-03-25T12:43:00.449Z,17.20
2023-03-25T12:46:27.393Z,16.90
2023-03-25T12:49:56.795Z,17.10
2023-03-25T12:53:26.826Z,16.90
2023-03-25T12:56:50.616Z,16.70
2023-03-25T13:00:31.051Z,16.90
2023-03-25T13:03:35.945Z,17.20
2023-03-25T13:06:42.577Z,17.40
2023-03-25T13:10:00.674Z,17.50
2023-03-25T13:13:12.397Z,17.70
2023-03-25T13:16:19.537Z,17.90
2023-03-25T13:19:26.627Z,17.90
2023-03-25T13:22:35.075Z,17.70
2023-03-25T13:25:51.952Z,17.70
2023-03-25T13:29:01.470Z,17.60
2023-03-25T13:32:09.836Z,17.70
2023-03-25T13:35:36.212Z,17.70
2023-03-25T13:38:52.572Z,17.50
2023-03-25T13:42:03.212Z,17.40
2023-03-25T13:45:06.690Z,17.30
2023-03-25T13:48:21.057Z,17.10
2023-03-25T13:51:23.593Z,17.00
2023-03-25T13:54:36.414Z,17.00
2023-03-25T13:57:42.219Z,17.00
2023-03-25T14:01:05.062Z,17.00
2023-03-25T14:04:26.367Z,16.80
2023-03-25T14:07:38.532Z,16.70
2023-03-25T14:10:59.007Z,16.90
2023-03-25T14:14:10.018Z,16.90
2023-03-25T14:17:12.957Z,16.80
2023-03-25T14:20:41.354Z,16.90
2023-03-25T14:23:44.692Z,16.90
2023-03-25T14:26:53.636Z,16.80
2023-03-25T14:30:27.247Z,16.90
2023-03-25T14:33:58.283Z,16.70
2023-03-25T14:37:00.234Z,16.80
2023-03-25T14:40:59.134Z,16.90
2023-03-25T14:44:20.011Z,16.80
2023-03-25T14:47:22.340Z,16.90
2023-03-25T14:50:24.406Z,16.90
2023-03-25T14:53:27.467Z,16.90
2023-03-25T14:56:47.096Z,17.00
2023-03-25T15:00:00.751Z,17.00
2023-03-25T15:03:13.376Z,17.20
2023-03-25T15:06:31.985Z,17.30
2023-03-25T15:09:44.736Z,17.30
2023-03-25T15:12:51.446Z,17.20
2023-03-25T15:16:06.311Z,17.50
2023-03-25T15:19:10.943Z,17.20
2023-03-25T15:22:21.822Z,17.20
2023-03-25T15:25:23.966Z,17.20
2023-03-25T15:28:37.876Z,17.30
2023-03-25T15:32:00.589Z,17.40
2023-03-25T15:35:30.556Z,17.20
2023-03-25T15:38:57.443Z,17.20
2023-03-25T15:42:33.331Z,17.10
2023-03-25T15:45:57.733Z,17.10
2023-03-25T15:49:34.296Z,17.10
2023-03-25T15:52:42.128Z,17.20
2023-03-25T15:55:54.663Z,17.10
2023-03-25T15:59:05.468Z,17.20
2023-03-25T16:02:21.790Z,17.40
2023-03-25T16:05:24.155Z,17.30
2023-03-25T16:08:34.398Z,17.20
2023-03-25T16:11:42.963Z,16.90
2023-03-25T16:14:47.526Z,16.80
2023-03-25T16:17:50.443Z,16.90
2023-03-25T16:21:02.087Z,16.80
2023-03-25T16:24:07.406Z,16.70
2023-03-25T16:27:12.210Z,16.50
2023-03-25T16:30:38.683Z,16.50
2023-03-25T16:33:40.838Z,16.50
2023-03-25T16:36:46.916Z,16.40
2023-03-25T16:39:53.593Z,16.50
2023-03-25T16:43:03.945Z,16.50
2023-03-25T16:46:08.599Z,16.40
2023-03-25T16:49:32.189Z,16.40
2023-03-25T16:52:35.100Z,16.40
2023-03-25T16:55:49.231Z,16.30
2023-03-25T16:59:12.790Z,16.30
2023-03-25T17:02:30.014Z,16.30
2023-03-25T17:05:32.316Z,16.20
2023-03-25T17:08:35.758Z,16.20
2023-03-25T17:11:38.095Z,16.10
2023-03-25T17:14:44.137Z,16.00
2023-03-25T17:17:49.886Z,16.00
2023-03-25T17:20:59.441Z,16.00
2023-03-25T17:27:43.647Z,15.90
2023-03-25T17:30:47.503Z,15.70
2023-03-25T17:33:54.088Z,15.70
2023-03-25T17:37:04.691Z,15.60
2023-03-25T17:40:11.850Z,15.50
2023-03-25T17:43:24.892Z,15.50
2023-03-25T17:46:29.434Z,15.40
2023-03-25T17:49:35.358Z,15.50
2023-03-25T17:52:37.452Z,15.40
2023-03-25T17:55:40.957Z,15.30
2023-03-25T17:58:44.047Z,15.40
2023-03-25T18:01:48.151Z,15.30
2023-03-25T18:04:51.086Z,15.20
2023-03-25T18:07:53.018Z,15.20
2023-03-25T18:10:57.611Z,15.00
2023-03-25T18:14:02.212Z,15.00
2023-03-25T18:17:05.928Z,14.80
2023-03-25T18:20:16.816Z,14.80
2023-03-25T18:23:24.893Z,14.80
2023-03-25T18:26:31.337Z,14.70
2023-03-25T18:29:35.504Z,14.60
2023-03-25T18:32:38.756Z,14.50
2023-03-25T18:35:43.303Z,14.50
2023-03-25T18:38:47.337Z,14.50
2023-03-25T18:41:50.220Z,14.40
2023-03-25T18:44:52.913Z,14.40
2023-03-25T18:47:55.495Z,14.40
2023-03-25T18:51:00.602Z,14.40
2023-03-25T18:54:04.989Z,14.40
2023-03-25T18:57:08.381Z,14.40
2023-03-25T19:00:17.568Z,14.40
2023-03-25T19:03:26.084Z,14.40
2023-03-25T19:06:30.224Z,14.20
2023-03-25T19:09:32.695Z,14.20
2023-03-25T19:12:35.964Z,14.20
2023-03-25T19:15:40.883Z,14.20
2023-03-25T19:18:43.993Z,14.20
2023-03-25T19:21:45.963Z,14.10
2023-03-25T19:24:48.145Z,14.10
2023-03-25T19:27:56.152Z,14.00
2023-03-25T19:31:02.223Z,14.00
2023-03-25T19:34:05.265Z,14.00
2023-03-25T19:37:08.110Z,13.90
2023-03-25T19:40:12.329Z,13.90
2023-03-25T19:43:14.795Z,13.90
2023-03-25T19:46:17.099Z,13.90
2023-03-25T19:49:29.227Z,13.80
2023-03-25T19:52:42.422Z,13.80
2023-03-25T19:55:45.382Z,13.70
2023-03-25T19:58:47.470Z,13.60
2023-03-25T20:01:49.780Z,13.50
2023-03-25T20:04:52.590Z,13.20
2023-03-25T20:07:56.561Z,13.00
2023-03-25T20:11:00.880Z,12.90
2023-03-25T20:14:03.778Z,12.80
2023-03-25T20:17:05.971Z,12.70
2023-03-25T20:20:11.260Z,12.60
2023-03-25T20:23:13.332Z,12.70
2023-03-25T20:26:18.702Z,12.60
2023-03-25T20:29:20.763Z,12.60
2023-03-25T20:32:33.818Z,12.60
2023-03-25T20:35:40.019Z,12.50
2023-03-25T20:38:54.322Z,12.40
2023-03-25T20:41:59.163Z,12.40
2023-03-25T20:45:01.492Z,12.40
2023-03-25T20:48:03.878Z,12.40
2023-03-25T20:51:07.803Z,12.40
2023-03-25T20:54:11.045Z,12.40
2023-03-25T20:57:13.178Z,12.40
2023-03-25T21:00:15.979Z,12.40
2023-03-25T21:03:18.611Z,12.40
2023-03-25T21:06:25.651Z,12.50
2023-03-25T21:09:32.365Z,12.50
2023-03-25T21:12:43.226Z,12.50
2023-03-25T21:15:47.476Z,12.50
2023-03-25T21:18:50.656Z,12.40
2023-03-25T21:21:52.770Z,12.50
2023-03-25T21:24:54.911Z,12.40
2023-03-25T21:27:57.061Z,12.40
2023-03-25T21:31:07.488Z,12.40
2023-03-25T21:34:09.696Z,12.40
2023-03-25T21:37:11.662Z,12.30
2023-03-25T21:40:13.837Z,12.30
2023-03-25T21:43:15.822Z,12.30
2023-03-25T21:46:18.487Z,12.30
2023-03-25T21:49:20.802Z,12.40
2023-03-25T21:52:24.313Z,12.30
2023-03-25T21:55:26.810Z,12.30
2023-03-25T21:58:29.515Z,12.30
2023-03-25T22:01:32.313Z,12.40
2023-03-25T22:04:34.561Z,12.40
2023-03-25T22:07:36.906Z,12.40
2023-03-25T22:10:39.423Z,12.40
2023-03-25T22:13:42.623Z,12.40
2023-03-25T22:16:44.677Z,12.30
2023-03-25T22:19:46.796Z,12.30
2023-03-25T22:22:48.769Z,12.30
2023-03-25T22:25:50.730Z,12.40
2023-03-25T22:28:57.382Z,12.30
2023-03-25T22:31:59.466Z,12.30
2023-03-25T22:35:02.497Z,12.40
2023-03-25T22:38:04.959Z,12.30
2023-03-25T22:41:08.345Z,12.20
2023-03-25T22:44:13.603Z,12.20
2023-03-25T22:47:15.725Z,12.20
2023-03-25T22:50:17.910Z,12.20
2023-03-25T22:53:19.934Z,12.20
2023-03-25T22:56:22.339Z,12.20
2023-03-25T22:59:24.340Z,12.20
2023-03-25T23:02:26.530Z,12.20
2023-03-25T23:05:28.689Z,12.20
2023-03-25T23:08:34.303Z,12.20
2023-03-25T23:11:37.325Z,12.10
2023-03-25T23:14:41.786Z,12.10
2023-03-25T23:17:43.806Z,12.10
2023-03-25T23:20:48.809Z,12.00
2023-03-25T23:23:53.940Z,12.10
2023-03-25T23:26:55.982Z,12.00
2023-03-25T23:29:58.127Z,11.80
2023-03-25T23:33:00.323Z,11.90
2023-03-25T23:36:03.592Z,12.00
2023-03-25T23:39:07.366Z,12.00
2023-03-25T23:42:09.468Z,12.10
2023-03-25T23:45:12.373Z,12.10
2023-03-25T23:48:14.377Z,12.00
2023-03-25T23:51:19.072Z,12.10
2023-03-25T23:54:21.043Z,12.10
2023-03-25T23:57:22.981Z,12.00
